sensor_id;sensor_type;location;lat;lon;timestamp;temperature;humidity
65972;SHT31;52726;48.852;9.152;2022-09-03T00:01:30;16.58;60.04
65972;SHT31;52726;48.852;9.152;2022-09-03T00:04:02;16.54;60.58
65972;SHT31;52726;48.852;9.152;2022-09-03T00:06:37;16.53;60.73
65972;SHT31;52726;48.852;9.152;2022-09-03T00:09:24;16.54;60.54
65972;SHT31;52726;48.852;9.152;2022-09-03T00:12:09;16.54;60.12
65972;SHT31;52726;48.852;9.152;2022-09-03T00:14:42;16.56;60.38
65972;SHT31;52726;48.852;9.152;2022-09-03T00:17:14;16.58;60.19
65972;SHT31;52726;48.852;9.152;2022-09-03T00:19:46;16.57;60.72
65972;SHT31;52726;48.852;9.152;2022-09-03T00:22:18;16.56;60.23
65972;SHT31;52726;48.852;9.152;2022-09-03T00:24:47;16.57;60.44
65972;SHT31;52726;48.852;9.152;2022-09-03T00:27:25;16.58;60.94
65972;SHT31;52726;48.852;9.152;2022-09-03T00:30:05;16.58;60.37
65972;SHT31;52726;48.852;9.152;2022-09-03T00:32:40;16.57;60.67
65972;SHT31;52726;48.852;9.152;2022-09-03T00:35:12;16.58;60.81
65972;SHT31;52726;48.852;9.152;2022-09-03T00:37:38;16.60;60.79
65972;SHT31;52726;48.852;9.152;2022-09-03T00:40:09;16.60;60.54
65972;SHT31;52726;48.852;9.152;2022-09-03T00:42:49;16.64;60.32
65972;SHT31;52726;48.852;9.152;2022-09-03T00:45:43;16.65;60.44
65972;SHT31;52726;48.852;9.152;2022-09-03T00:48:21;16.63;61.02
65972;SHT31;52726;48.852;9.152;2022-09-03T00:53:54;16.63;61.33
65972;SHT31;52726;48.852;9.152;2022-09-03T00:56:36;16.58;61.95
65972;SHT31;52726;48.852;9.152;2022-09-03T01:04:36;16.65;60.90
65972;SHT31;52726;48.852;9.152;2022-09-03T01:07:39;16.63;62.05
65972;SHT31;52726;48.852;9.152;2022-09-03T01:13:22;16.57;62.69
65972;SHT31;52726;48.852;9.152;2022-09-03T01:18:47;16.51;64.23
65972;SHT31;52726;48.852;9.152;2022-09-03T01:22:04;16.47;64.85
65972;SHT31;52726;48.852;9.152;2022-09-03T01:29:33;16.44;65.68
65972;SHT31;52726;48.852;9.152;2022-09-03T01:32:10;16.43;65.28
65972;SHT31;52726;48.852;9.152;2022-09-03T01:35:09;16.40;64.03
65972;SHT31;52726;48.852;9.152;2022-09-03T01:43:49;16.41;65.60
65972;SHT31;52726;48.852;9.152;2022-09-03T01:46:25;16.29;66.70
65972;SHT31;52726;48.852;9.152;2022-09-03T01:49:05;16.17;67.14
65972;SHT31;52726;48.852;9.152;2022-09-03T01:51:36;16.10;67.20
65972;SHT31;52726;48.852;9.152;2022-09-03T01:57:14;16.09;68.26
65972;SHT31;52726;48.852;9.152;2022-09-03T02:02:33;16.12;67.48
65972;SHT31;52726;48.852;9.152;2022-09-03T02:05:12;16.17;66.90
65972;SHT31;52726;48.852;9.152;2022-09-03T02:07:53;16.27;64.13
65972;SHT31;52726;48.852;9.152;2022-09-03T02:10:44;16.40;63.66
65972;SHT31;52726;48.852;9.152;2022-09-03T02:13:17;16.44;63.91
65972;SHT31;52726;48.852;9.152;2022-09-03T02:15:45;16.46;63.61
65972;SHT31;52726;48.852;9.152;2022-09-03T02:18:16;16.49;65.16
65972;SHT31;52726;48.852;9.152;2022-09-03T02:20:43;16.46;64.64
65972;SHT31;52726;48.852;9.152;2022-09-03T02:23:09;16.40;65.94
65972;SHT31;52726;48.852;9.152;2022-09-03T02:25:39;16.34;67.54
65972;SHT31;52726;48.852;9.152;2022-09-03T02:28:06;16.24;69.50
65972;SHT31;52726;48.852;9.152;2022-09-03T02:30:33;16.20;69.20
65972;SHT31;52726;48.852;9.152;2022-09-03T02:32:59;16.17;68.98
65972;SHT31;52726;48.852;9.152;2022-09-03T02:35:24;16.16;68.60
65972;SHT31;52726;48.852;9.152;2022-09-03T02:37:49;16.19;67.42
65972;SHT31;52726;48.852;9.152;2022-09-03T02:40:15;16.24;66.60
65972;SHT31;52726;48.852;9.152;2022-09-03T02:42:41;16.24;66.83
65972;SHT31;52726;48.852;9.152;2022-09-03T02:45:13;16.20;66.73
65972;SHT31;52726;48.852;9.152;2022-09-03T02:47:42;16.14;66.87
65972;SHT31;52726;48.852;9.152;2022-09-03T02:50:08;16.06;67.84
65972;SHT31;52726;48.852;9.152;2022-09-03T02:52:34;15.95;68.62
65972;SHT31;52726;48.852;9.152;2022-09-03T02:55:00;15.91;68.51
65972;SHT31;52726;48.852;9.152;2022-09-03T02:57:25;15.88;68.86
65972;SHT31;52726;48.852;9.152;2022-09-03T02:59:50;15.88;69.38
65972;SHT31;52726;48.852;9.152;2022-09-03T03:02:16;15.86;68.65
65972;SHT31;52726;48.852;9.152;2022-09-03T03:04:41;15.86;68.38
65972;SHT31;52726;48.852;9.152;2022-09-03T03:07:07;15.82;67.16
65972;SHT31;52726;48.852;9.152;2022-09-03T03:09:32;15.85;67.05
65972;SHT31;52726;48.852;9.152;2022-09-03T03:11:57;15.85;68.03
65972;SHT31;52726;48.852;9.152;2022-09-03T03:14:23;15.79;69.43
65972;SHT31;52726;48.852;9.152;2022-09-03T03:16:49;15.71;70.11
65972;SHT31;52726;48.852;9.152;2022-09-03T03:19:15;15.68;70.37
65972;SHT31;52726;48.852;9.152;2022-09-03T03:21:40;15.68;70.39
65972;SHT31;52726;48.852;9.152;2022-09-03T03:24:06;15.71;69.43
65972;SHT31;52726;48.852;9.152;2022-09-03T03:26:32;15.72;69.54
65972;SHT31;52726;48.852;9.152;2022-09-03T03:28:59;15.75;69.18
65972;SHT31;52726;48.852;9.152;2022-09-03T03:31:26;15.72;70.40
65972;SHT31;52726;48.852;9.152;2022-09-03T03:34:00;15.69;69.89
65972;SHT31;52726;48.852;9.152;2022-09-03T03:36:28;15.69;69.45
65972;SHT31;52726;48.852;9.152;2022-09-03T03:38:55;15.69;69.64
65972;SHT31;52726;48.852;9.152;2022-09-03T03:41:34;15.71;68.74
65972;SHT31;52726;48.852;9.152;2022-09-03T03:44:05;15.72;70.11
65972;SHT31;52726;48.852;9.152;2022-09-03T03:46:33;15.72;69.88
65972;SHT31;52726;48.852;9.152;2022-09-03T03:48:59;15.69;69.85
65972;SHT31;52726;48.852;9.152;2022-09-03T03:51:25;15.68;70.20
65972;SHT31;52726;48.852;9.152;2022-09-03T03:53:54;15.62;69.72
65972;SHT31;52726;48.852;9.152;2022-09-03T03:56:20;15.62;69.92
65972;SHT31;52726;48.852;9.152;2022-09-03T03:58:45;15.62;70.23
65972;SHT31;52726;48.852;9.152;2022-09-03T04:01:16;15.59;70.80
65972;SHT31;52726;48.852;9.152;2022-09-03T04:03:42;15.58;70.74
65972;SHT31;52726;48.852;9.152;2022-09-03T04:06:10;15.57;70.91
65972;SHT31;52726;48.852;9.152;2022-09-03T04:08:40;15.58;70.97
65972;SHT31;52726;48.852;9.152;2022-09-03T04:11:08;15.58;70.95
65972;SHT31;52726;48.852;9.152;2022-09-03T04:13:39;15.64;69.32
65972;SHT31;52726;48.852;9.152;2022-09-03T04:18:31;15.68;69.19
65972;SHT31;52726;48.852;9.152;2022-09-03T04:21:10;15.77;68.48
65972;SHT31;52726;48.852;9.152;2022-09-03T04:23:41;15.79;67.29
65972;SHT31;52726;48.852;9.152;2022-09-03T04:26:09;15.83;66.94
65972;SHT31;52726;48.852;9.152;2022-09-03T04:28:35;15.93;67.51
65972;SHT31;52726;48.852;9.152;2022-09-03T04:31:02;16.02;67.26
65972;SHT31;52726;48.852;9.152;2022-09-03T04:33:29;16.14;66.45
65972;SHT31;52726;48.852;9.152;2022-09-03T04:36:12;16.24;66.46
65972;SHT31;52726;48.852;9.152;2022-09-03T04:38:40;16.23;67.33
65972;SHT31;52726;48.852;9.152;2022-09-03T04:41:08;16.27;66.00
65972;SHT31;52726;48.852;9.152;2022-09-03T04:43:34;16.29;66.59
65972;SHT31;52726;48.852;9.152;2022-09-03T04:46:00;16.34;66.35
65972;SHT31;52726;48.852;9.152;2022-09-03T04:48:27;16.34;66.27
65972;SHT31;52726;48.852;9.152;2022-09-03T04:50:53;16.36;66.13
65972;SHT31;52726;48.852;9.152;2022-09-03T04:53:21;16.40;66.30
65972;SHT31;52726;48.852;9.152;2022-09-03T04:55:47;16.39;66.45
65972;SHT31;52726;48.852;9.152;2022-09-03T04:58:12;16.37;66.79
65972;SHT31;52726;48.852;9.152;2022-09-03T05:00:37;16.36;66.06
65972;SHT31;52726;48.852;9.152;2022-09-03T05:03:03;16.37;66.83
65972;SHT31;52726;48.852;9.152;2022-09-03T05:05:30;16.39;67.46
65972;SHT31;52726;48.852;9.152;2022-09-03T05:08:04;16.40;67.16
65972;SHT31;52726;48.852;9.152;2022-09-03T05:10:31;16.41;67.16
65972;SHT31;52726;48.852;9.152;2022-09-03T05:12:59;16.47;66.74
65972;SHT31;52726;48.852;9.152;2022-09-03T05:15:26;16.50;66.72
65972;SHT31;52726;48.852;9.152;2022-09-03T05:17:55;16.51;66.61
65972;SHT31;52726;48.852;9.152;2022-09-03T05:20:21;16.51;66.90
65972;SHT31;52726;48.852;9.152;2022-09-03T05:22:47;16.54;67.42
65972;SHT31;52726;48.852;9.152;2022-09-03T05:25:12;16.53;67.18
65972;SHT31;52726;48.852;9.152;2022-09-03T05:27:37;16.51;69.38
65972;SHT31;52726;48.852;9.152;2022-09-03T05:30:03;16.51;68.60
65972;SHT31;52726;48.852;9.152;2022-09-03T05:32:30;16.53;68.49
65972;SHT31;52726;48.852;9.152;2022-09-03T05:34:55;16.54;69.78
65972;SHT31;52726;48.852;9.152;2022-09-03T05:37:21;16.60;69.11
65972;SHT31;52726;48.852;9.152;2022-09-03T05:39:47;16.65;68.11
65972;SHT31;52726;48.852;9.152;2022-09-03T05:42:12;16.67;69.64
65972;SHT31;52726;48.852;9.152;2022-09-03T05:44:39;16.68;69.07
65972;SHT31;52726;48.852;9.152;2022-09-03T05:47:04;16.68;68.69
65972;SHT31;52726;48.852;9.152;2022-09-03T05:49:30;16.74;68.99
65972;SHT31;52726;48.852;9.152;2022-09-03T05:51:56;16.82;68.91
65972;SHT31;52726;48.852;9.152;2022-09-03T05:54:22;16.92;67.31
65972;SHT31;52726;48.852;9.152;2022-09-03T05:56:47;16.85;67.57
65972;SHT31;52726;48.852;9.152;2022-09-03T05:59:12;16.82;68.33
65972;SHT31;52726;48.852;9.152;2022-09-03T06:01:43;16.78;67.70
65972;SHT31;52726;48.852;9.152;2022-09-03T06:04:12;16.79;68.63
65972;SHT31;52726;48.852;9.152;2022-09-03T06:06:43;16.82;69.00
65972;SHT31;52726;48.852;9.152;2022-09-03T06:09:17;16.85;68.54
65972;SHT31;52726;48.852;9.152;2022-09-03T06:11:43;16.88;67.57
65972;SHT31;52726;48.852;9.152;2022-09-03T06:14:11;16.89;67.39
65972;SHT31;52726;48.852;9.152;2022-09-03T06:16:41;16.92;67.49
65972;SHT31;52726;48.852;9.152;2022-09-03T06:19:08;16.95;68.28
65972;SHT31;52726;48.852;9.152;2022-09-03T06:21:39;16.96;67.64
65972;SHT31;52726;48.852;9.152;2022-09-03T06:24:08;16.94;67.42
65972;SHT31;52726;48.852;9.152;2022-09-03T06:26:35;16.95;67.25
65972;SHT31;52726;48.852;9.152;2022-09-03T06:29:00;16.98;67.61
65972;SHT31;52726;48.852;9.152;2022-09-03T06:31:26;17.04;67.44
65972;SHT31;52726;48.852;9.152;2022-09-03T06:33:52;17.15;68.74
65972;SHT31;52726;48.852;9.152;2022-09-03T06:36:19;17.23;67.95
65972;SHT31;52726;48.852;9.152;2022-09-03T06:38:45;17.26;66.93
65972;SHT31;52726;48.852;9.152;2022-09-03T06:41:16;17.30;66.04
65972;SHT31;52726;48.852;9.152;2022-09-03T06:43:51;17.30;66.13
65972;SHT31;52726;48.852;9.152;2022-09-03T06:46:22;17.33;66.18
65972;SHT31;52726;48.852;9.152;2022-09-03T06:48:48;17.37;65.81
65972;SHT31;52726;48.852;9.152;2022-09-03T06:51:20;17.40;66.71
65972;SHT31;52726;48.852;9.152;2022-09-03T06:53:48;17.47;66.12
65972;SHT31;52726;48.852;9.152;2022-09-03T06:56:20;17.51;65.94
65972;SHT31;52726;48.852;9.152;2022-09-03T06:58:58;17.59;64.82
65972;SHT31;52726;48.852;9.152;2022-09-03T07:01:26;17.69;65.67
65972;SHT31;52726;48.852;9.152;2022-09-03T07:03:54;17.75;65.84
65972;SHT31;52726;48.852;9.152;2022-09-03T07:06:21;17.80;65.39
65972;SHT31;52726;48.852;9.152;2022-09-03T07:08:47;17.91;65.06
65972;SHT31;52726;48.852;9.152;2022-09-03T07:11:15;17.98;65.10
65972;SHT31;52726;48.852;9.152;2022-09-03T07:13:43;18.06;64.84
65972;SHT31;52726;48.852;9.152;2022-09-03T07:16:33;18.12;64.85
65972;SHT31;52726;48.852;9.152;2022-09-03T07:18:59;18.21;64.52
65972;SHT31;52726;48.852;9.152;2022-09-03T07:21:27;18.36;64.14
65972;SHT31;52726;48.852;9.152;2022-09-03T07:23:53;18.33;64.32
65972;SHT31;52726;48.852;9.152;2022-09-03T07:26:24;18.38;64.98
65972;SHT31;52726;48.852;9.152;2022-09-03T07:28:51;18.36;64.50
65972;SHT31;52726;48.852;9.152;2022-09-03T07:31:21;18.33;64.41
65972;SHT31;52726;48.852;9.152;2022-09-03T07:33:53;18.33;64.45
65972;SHT31;52726;48.852;9.152;2022-09-03T07:36:20;18.35;65.00
65972;SHT31;52726;48.852;9.152;2022-09-03T07:38:46;18.38;64.78
65972;SHT31;52726;48.852;9.152;2022-09-03T07:41:13;18.35;65.13
65972;SHT31;52726;48.852;9.152;2022-09-03T07:43:41;18.40;65.12
65972;SHT31;52726;48.852;9.152;2022-09-03T07:46:18;18.50;65.77
65972;SHT31;52726;48.852;9.152;2022-09-03T07:48:57;18.57;64.86
65972;SHT31;52726;48.852;9.152;2022-09-03T07:51:25;18.78;64.41
65972;SHT31;52726;48.852;9.152;2022-09-03T07:53:53;19.31;64.76
65972;SHT31;52726;48.852;9.152;2022-09-03T07:56:19;19.39;64.95
65972;SHT31;52726;48.852;9.152;2022-09-03T07:58:44;19.51;64.31
65972;SHT31;52726;48.852;9.152;2022-09-03T08:01:13;19.81;64.13
65972;SHT31;52726;48.852;9.152;2022-09-03T08:03:44;20.22;63.36
65972;SHT31;52726;48.852;9.152;2022-09-03T08:06:11;20.61;60.95
65972;SHT31;52726;48.852;9.152;2022-09-03T08:08:38;20.94;59.97
65972;SHT31;52726;48.852;9.152;2022-09-03T08:11:12;21.06;58.64
65972;SHT31;52726;48.852;9.152;2022-09-03T08:13:43;20.61;60.44
65972;SHT31;52726;48.852;9.152;2022-09-03T08:16:17;20.48;60.19
65972;SHT31;52726;48.852;9.152;2022-09-03T08:18:43;20.38;60.96
65972;SHT31;52726;48.852;9.152;2022-09-03T08:21:16;20.35;61.06
65972;SHT31;52726;48.852;9.152;2022-09-03T08:26:14;21.00;59.81
65972;SHT31;52726;48.852;9.152;2022-09-03T08:28:40;21.07;59.69
65972;SHT31;52726;48.852;9.152;2022-09-03T08:31:09;21.08;62.03
65972;SHT31;52726;48.852;9.152;2022-09-03T08:33:36;20.77;61.52
65972;SHT31;52726;48.852;9.152;2022-09-03T08:36:14;20.52;62.87
65972;SHT31;52726;48.852;9.152;2022-09-03T08:38:41;20.53;63.06
65972;SHT31;52726;48.852;9.152;2022-09-03T08:41:18;20.55;63.66
65972;SHT31;52726;48.852;9.152;2022-09-03T08:49:04;20.71;65.82
65972;SHT31;52726;48.852;9.152;2022-09-03T08:51:31;20.71;66.08
65972;SHT31;52726;48.852;9.152;2022-09-03T08:54:02;20.59;66.06
65972;SHT31;52726;48.852;9.152;2022-09-03T08:56:30;20.27;67.44
65972;SHT31;52726;48.852;9.152;2022-09-03T08:58:57;20.29;68.31
65972;SHT31;52726;48.852;9.152;2022-09-03T09:01:58;20.34;67.67
65972;SHT31;52726;48.852;9.152;2022-09-03T09:04:43;20.48;67.51
65972;SHT31;52726;48.852;9.152;2022-09-03T09:10:11;20.99;64.43
65972;SHT31;52726;48.852;9.152;2022-09-03T09:12:46;20.83;63.37
65972;SHT31;52726;48.852;9.152;2022-09-03T09:20:52;21.23;64.67
65972;SHT31;52726;48.852;9.152;2022-09-03T09:23:26;20.94;63.09
65972;SHT31;52726;48.852;9.152;2022-09-03T09:25:54;20.79;63.98
65972;SHT31;52726;48.852;9.152;2022-09-03T09:28:29;21.19;63.55
65972;SHT31;52726;48.852;9.152;2022-09-03T09:30:57;21.30;63.74
65972;SHT31;52726;48.852;9.152;2022-09-03T09:33:25;21.34;62.59
65972;SHT31;52726;48.852;9.152;2022-09-03T09:35:51;21.41;62.14
65972;SHT31;52726;48.852;9.152;2022-09-03T09:38:30;21.96;60.43
65972;SHT31;52726;48.852;9.152;2022-09-03T09:43:38;21.61;60.17
65972;SHT31;52726;48.852;9.152;2022-09-03T09:46:24;21.99;59.57
65972;SHT31;52726;48.852;9.152;2022-09-03T09:48:56;22.40;57.79
65972;SHT31;52726;48.852;9.152;2022-09-03T09:51:29;23.05;57.09
65972;SHT31;52726;48.852;9.152;2022-09-03T09:54:13;23.01;57.25
65972;SHT31;52726;48.852;9.152;2022-09-03T09:56:43;22.81;56.77
65972;SHT31;52726;48.852;9.152;2022-09-03T09:59:10;22.26;57.72
65972;SHT31;52726;48.852;9.152;2022-09-03T10:01:38;22.47;57.44
65972;SHT31;52726;48.852;9.152;2022-09-03T10:04:12;22.07;59.75
65972;SHT31;52726;48.852;9.152;2022-09-03T10:06:42;22.32;59.29
65972;SHT31;52726;48.852;9.152;2022-09-03T10:09:26;22.55;57.22
65972;SHT31;52726;48.852;9.152;2022-09-03T10:14:50;22.43;57.59
65972;SHT31;52726;48.852;9.152;2022-09-03T10:18:01;22.68;57.39
65972;SHT31;52726;48.852;9.152;2022-09-03T10:20:35;23.18;56.99
65972;SHT31;52726;48.852;9.152;2022-09-03T10:28:10;23.32;56.57
65972;SHT31;52726;48.852;9.152;2022-09-03T10:33:41;23.19;54.78
65972;SHT31;52726;48.852;9.152;2022-09-03T10:36:21;23.16;55.21
65972;SHT31;52726;48.852;9.152;2022-09-03T10:38:53;23.19;55.33
65972;SHT31;52726;48.852;9.152;2022-09-03T10:52:35;24.33;52.16
65972;SHT31;52726;48.852;9.152;2022-09-03T10:58:23;24.60;52.86
65972;SHT31;52726;48.852;9.152;2022-09-03T11:00:59;24.64;52.37
65972;SHT31;52726;48.852;9.152;2022-09-03T11:03:48;24.36;52.38
65972;SHT31;52726;48.852;9.152;2022-09-03T11:06:28;24.33;53.55
65972;SHT31;52726;48.852;9.152;2022-09-03T11:09:07;24.51;52.79
65972;SHT31;52726;48.852;9.152;2022-09-03T11:11:42;24.40;52.02
65972;SHT31;52726;48.852;9.152;2022-09-03T11:14:10;24.24;52.08
65972;SHT31;52726;48.852;9.152;2022-09-03T11:16:44;24.29;53.19
65972;SHT31;52726;48.852;9.152;2022-09-03T11:19:18;24.42;51.93
65972;SHT31;52726;48.852;9.152;2022-09-03T11:21:45;24.32;52.01
65972;SHT31;52726;48.852;9.152;2022-09-03T11:24:21;24.26;54.15
65972;SHT31;52726;48.852;9.152;2022-09-03T11:26:54;24.16;53.62
65972;SHT31;52726;48.852;9.152;2022-09-03T11:32:03;24.21;53.56
65972;SHT31;52726;48.852;9.152;2022-09-03T11:34:49;24.24;54.07
65972;SHT31;52726;48.852;9.152;2022-09-03T11:37:17;24.29;55.09
65972;SHT31;52726;48.852;9.152;2022-09-03T11:39:43;24.35;53.72
65972;SHT31;52726;48.852;9.152;2022-09-03T11:42:12;24.42;53.98
65972;SHT31;52726;48.852;9.152;2022-09-03T11:44:45;24.39;53.52
65972;SHT31;52726;48.852;9.152;2022-09-03T11:47:19;24.40;53.73
65972;SHT31;52726;48.852;9.152;2022-09-03T11:49:50;24.30;53.39
65972;SHT31;52726;48.852;9.152;2022-09-03T11:52:30;24.15;54.25
65972;SHT31;52726;48.852;9.152;2022-09-03T11:55:05;23.89;53.88
65972;SHT31;52726;48.852;9.152;2022-09-03T11:57:31;23.79;54.68
65972;SHT31;52726;48.852;9.152;2022-09-03T12:00:27;23.39;55.23
65972;SHT31;52726;48.852;9.152;2022-09-03T12:03:00;23.30;55.83
65972;SHT31;52726;48.852;9.152;2022-09-03T12:05:43;23.22;56.56
65972;SHT31;52726;48.852;9.152;2022-09-03T12:11:26;23.11;57.39
65972;SHT31;52726;48.852;9.152;2022-09-03T12:19:06;22.79;56.90
65972;SHT31;52726;48.852;9.152;2022-09-03T12:21:38;22.61;57.63
65972;SHT31;52726;48.852;9.152;2022-09-03T12:24:04;22.53;59.46
65972;SHT31;52726;48.852;9.152;2022-09-03T12:26:38;22.57;58.38
65972;SHT31;52726;48.852;9.152;2022-09-03T12:29:05;22.54;59.18
65972;SHT31;52726;48.852;9.152;2022-09-03T12:31:32;22.51;58.13
65972;SHT31;52726;48.852;9.152;2022-09-03T12:34:13;22.50;58.72
65972;SHT31;52726;48.852;9.152;2022-09-03T12:36:47;22.46;58.30
65972;SHT31;52726;48.852;9.152;2022-09-03T12:39:18;22.43;60.18
65972;SHT31;52726;48.852;9.152;2022-09-03T12:42:00;22.17;62.61
65972;SHT31;52726;48.852;9.152;2022-09-03T12:44:27;22.09;63.34
65972;SHT31;52726;48.852;9.152;2022-09-03T12:49:38;21.66;66.38
65972;SHT31;52726;48.852;9.152;2022-09-03T12:54:42;20.42;71.71
65972;SHT31;52726;48.852;9.152;2022-09-03T12:57:18;20.01;73.16
65972;SHT31;52726;48.852;9.152;2022-09-03T12:59:45;19.80;75.05
65972;SHT31;52726;48.852;9.152;2022-09-03T13:02:19;19.61;75.52
65972;SHT31;52726;48.852;9.152;2022-09-03T13:04:46;19.52;77.19
65972;SHT31;52726;48.852;9.152;2022-09-03T13:09:50;19.15;78.48
65972;SHT31;52726;48.852;9.152;2022-09-03T13:12:28;19.16;80.32
65972;SHT31;52726;48.852;9.152;2022-09-03T13:14:54;19.29;80.06
65972;SHT31;52726;48.852;9.152;2022-09-03T13:20:11;19.49;81.26
65972;SHT31;52726;48.852;9.152;2022-09-03T13:23:23;19.80;79.50
65972;SHT31;52726;48.852;9.152;2022-09-03T13:28:39;20.04;79.94
65972;SHT31;52726;48.852;9.152;2022-09-03T13:31:09;20.16;79.11
65972;SHT31;52726;48.852;9.152;2022-09-03T13:33:46;20.53;79.15
65972;SHT31;52726;48.852;9.152;2022-09-03T13:36:20;20.61;76.94
65972;SHT31;52726;48.852;9.152;2022-09-03T13:38:59;20.86;74.22
65972;SHT31;52726;48.852;9.152;2022-09-03T13:41:41;21.08;74.46
65972;SHT31;52726;48.852;9.152;2022-09-03T13:44:17;21.04;71.15
65972;SHT31;52726;48.852;9.152;2022-09-03T13:50:05;20.94;73.03
65972;SHT31;52726;48.852;9.152;2022-09-03T13:53:03;20.86;70.82
65972;SHT31;52726;48.852;9.152;2022-09-03T13:55:51;20.86;71.41
65972;SHT31;52726;48.852;9.152;2022-09-03T13:58:42;20.79;73.68
65972;SHT31;52726;48.852;9.152;2022-09-03T14:01:17;20.90;71.86
65972;SHT31;52726;48.852;9.152;2022-09-03T14:04:00;21.10;76.09
65972;SHT31;52726;48.852;9.152;2022-09-03T14:06:46;21.20;75.81
65972;SHT31;52726;48.852;9.152;2022-09-03T14:09:26;21.14;74.51
65972;SHT31;52726;48.852;9.152;2022-09-03T14:12:01;21.04;73.85
65972;SHT31;52726;48.852;9.152;2022-09-03T14:17:40;20.86;73.15
65972;SHT31;52726;48.852;9.152;2022-09-03T14:20:20;20.73;74.71
65972;SHT31;52726;48.852;9.152;2022-09-03T14:23:06;20.58;73.85
65972;SHT31;52726;48.852;9.152;2022-09-03T14:25:32;20.44;72.27
65972;SHT31;52726;48.852;9.152;2022-09-03T14:28:35;20.28;73.71
65972;SHT31;52726;48.852;9.152;2022-09-03T14:34:15;20.20;75.59
65972;SHT31;52726;48.852;9.152;2022-09-03T14:37:15;20.13;75.21
65972;SHT31;52726;48.852;9.152;2022-09-03T14:42:39;20.00;74.73
65972;SHT31;52726;48.852;9.152;2022-09-03T14:48:23;19.96;75.36
65972;SHT31;52726;48.852;9.152;2022-09-03T15:01:02;19.76;82.28
65972;SHT31;52726;48.852;9.152;2022-09-03T15:06:22;19.73;81.34
65972;SHT31;52726;48.852;9.152;2022-09-03T15:11:21;19.65;83.32
65972;SHT31;52726;48.852;9.152;2022-09-03T15:14:34;19.67;82.53
65972;SHT31;52726;48.852;9.152;2022-09-03T15:22:36;20.53;76.76
65972;SHT31;52726;48.852;9.152;2022-09-03T15:25:12;21.03;76.57
65972;SHT31;52726;48.852;9.152;2022-09-03T15:28:06;21.13;73.82
65972;SHT31;52726;48.852;9.152;2022-09-03T15:33:35;21.17;75.68
65972;SHT31;52726;48.852;9.152;2022-09-03T15:36:12;21.07;75.85
65972;SHT31;52726;48.852;9.152;2022-09-03T15:38:57;21.02;76.63
65972;SHT31;52726;48.852;9.152;2022-09-03T15:41:34;20.62;76.13
65972;SHT31;52726;48.852;9.152;2022-09-03T15:44:02;20.55;78.55
65972;SHT31;52726;48.852;9.152;2022-09-03T15:46:48;20.71;77.30
65972;SHT31;52726;48.852;9.152;2022-09-03T15:55:23;20.80;74.43
65972;SHT31;52726;48.852;9.152;2022-09-03T16:01:00;20.56;76.62
65972;SHT31;52726;48.852;9.152;2022-09-03T16:03:48;20.49;76.51
65972;SHT31;52726;48.852;9.152;2022-09-03T16:09:08;20.45;77.41
65972;SHT31;52726;48.852;9.152;2022-09-03T16:11:54;20.35;77.81
65972;SHT31;52726;48.852;9.152;2022-09-03T16:14:27;20.22;78.38
65972;SHT31;52726;48.852;9.152;2022-09-03T16:17:20;20.14;78.86
65972;SHT31;52726;48.852;9.152;2022-09-03T16:25:00;20.14;79.56
65972;SHT31;52726;48.852;9.152;2022-09-03T16:27:34;20.13;78.67
65972;SHT31;52726;48.852;9.152;2022-09-03T16:30:07;20.16;80.12
65972;SHT31;52726;48.852;9.152;2022-09-03T16:33:04;20.17;80.11
65972;SHT31;52726;48.852;9.152;2022-09-03T16:35:53;20.07;79.25
65972;SHT31;52726;48.852;9.152;2022-09-03T16:38:27;19.98;79.64
65972;SHT31;52726;48.852;9.152;2022-09-03T16:46:39;20.13;79.96
65972;SHT31;52726;48.852;9.152;2022-09-03T16:51:51;20.28;79.04
65972;SHT31;52726;48.852;9.152;2022-09-03T16:54:54;20.35;77.81
65972;SHT31;52726;48.852;9.152;2022-09-03T17:00:12;20.48;78.25
65972;SHT31;52726;48.852;9.152;2022-09-03T17:03:03;20.49;78.25
65972;SHT31;52726;48.852;9.152;2022-09-03T17:08:30;20.47;79.36
65972;SHT31;52726;48.852;9.152;2022-09-03T17:16:40;20.39;79.25
65972;SHT31;52726;48.852;9.152;2022-09-03T17:27:31;20.14;79.87
65972;SHT31;52726;48.852;9.152;2022-09-03T17:30:40;20.11;79.74
65972;SHT31;52726;48.852;9.152;2022-09-03T17:36:09;19.98;80.10
65972;SHT31;52726;48.852;9.152;2022-09-03T17:39:07;19.89;81.38
65972;SHT31;52726;48.852;9.152;2022-09-03T17:41:49;19.81;81.15
65972;SHT31;52726;48.852;9.152;2022-09-03T17:44:46;19.73;80.32
65972;SHT31;52726;48.852;9.152;2022-09-03T17:50:19;19.67;81.43
65972;SHT31;52726;48.852;9.152;2022-09-03T17:52:52;19.61;81.20
65972;SHT31;52726;48.852;9.152;2022-09-03T17:55:35;19.56;81.94
65972;SHT31;52726;48.852;9.152;2022-09-03T18:00:52;19.46;81.80
65972;SHT31;52726;48.852;9.152;2022-09-03T18:03:33;19.45;81.87
65972;SHT31;52726;48.852;9.152;2022-09-03T18:06:08;19.38;81.84
65972;SHT31;52726;48.852;9.152;2022-09-03T18:09:00;19.34;82.68
65972;SHT31;52726;48.852;9.152;2022-09-03T18:14:21;19.10;84.19
65972;SHT31;52726;48.852;9.152;2022-09-03T18:22:31;18.88;84.61
65972;SHT31;52726;48.852;9.152;2022-09-03T18:25:21;18.74;85.21
65972;SHT31;52726;48.852;9.152;2022-09-03T18:28:09;18.63;85.50
65972;SHT31;52726;48.852;9.152;2022-09-03T18:30:55;18.53;85.86
65972;SHT31;52726;48.852;9.152;2022-09-03T18:33:39;18.53;85.87
65972;SHT31;52726;48.852;9.152;2022-09-03T18:36:24;18.47;86.32
65972;SHT31;52726;48.852;9.152;2022-09-03T18:42:33;18.38;86.83
65972;SHT31;52726;48.852;9.152;2022-09-03T18:48:27;18.24;87.77
65972;SHT31;52726;48.852;9.152;2022-09-03T18:51:23;18.21;87.45
65972;SHT31;52726;48.852;9.152;2022-09-03T18:57:10;18.19;86.90
65972;SHT31;52726;48.852;9.152;2022-09-03T19:00:07;18.11;87.63
65972;SHT31;52726;48.852;9.152;2022-09-03T19:15:01;17.97;88.27
65972;SHT31;52726;48.852;9.152;2022-09-03T19:21:38;17.90;88.24
65972;SHT31;52726;48.852;9.152;2022-09-03T19:24:27;17.90;88.34
65972;SHT31;52726;48.852;9.152;2022-09-03T19:27:33;17.84;88.72
65972;SHT31;52726;48.852;9.152;2022-09-03T19:31:01;17.84;88.88
65972;SHT31;52726;48.852;9.152;2022-09-03T19:36:59;17.74;89.14
65972;SHT31;52726;48.852;9.152;2022-09-03T19:43:25;17.70;89.32
65972;SHT31;52726;48.852;9.152;2022-09-03T19:49:11;17.67;89.45
65972;SHT31;52726;48.852;9.152;2022-09-03T19:55:07;17.62;89.43
65972;SHT31;52726;48.852;9.152;2022-09-03T19:57:54;17.54;89.55
65972;SHT31;52726;48.852;9.152;2022-09-03T20:00:40;17.49;89.63
65972;SHT31;52726;48.852;9.152;2022-09-03T20:03:25;17.46;90.02
65972;SHT31;52726;48.852;9.152;2022-09-03T20:06:10;17.40;89.99
65972;SHT31;52726;48.852;9.152;2022-09-03T20:09:00;17.40;90.31
65972;SHT31;52726;48.852;9.152;2022-09-03T20:11:47;17.39;89.80
65972;SHT31;52726;48.852;9.152;2022-09-03T20:14:14;17.37;89.41
65972;SHT31;52726;48.852;9.152;2022-09-03T20:19:28;17.40;89.70